createdAt,value
2019-03-11T00:01:03.378Z,24.25
2019-03-11T00:03:34.512Z,25.60
2019-03-11T00:06:05.768Z,28.25
2019-03-11T00:08:36.997Z,32.25
2019-03-11T00:11:08.153Z,32.63
2019-03-11T00:13:39.320Z,36.90
2019-03-11T00:16:10.498Z,29.90
2019-03-11T00:18:41.620Z,27.58
2019-03-11T00:21:12.764Z,27.50
2019-03-11T00:23:43.899Z,23.27
2019-03-11T00:26:15.167Z,24.12
2019-03-11T00:28:46.275Z,16.55
2019-03-11T00:31:17.328Z,19.85
2019-03-11T00:33:48.395Z,18.10
2019-03-11T00:36:19.464Z,21.52
2019-03-11T00:38:50.723Z,20.45
2019-03-11T00:41:21.746Z,17.60
2019-03-11T00:43:52.924Z,16.65
2019-03-11T00:46:24.026Z,19.30
2019-03-11T00:48:55.055Z,21.02
2019-03-11T00:51:26.170Z,22.15
2019-03-11T00:53:57.190Z,19.73
2019-03-11T00:56:28.410Z,19.32
2019-03-11T00:59:00.462Z,18.57
2019-03-11T01:01:31.652Z,17.82
2019-03-11T01:04:02.817Z,16.75
2019-03-11T01:06:33.932Z,16.42
2019-03-11T01:09:06.589Z,23.05
2019-03-11T01:11:38.952Z,24.95
2019-03-11T01:14:10.048Z,21.62
2019-03-11T01:16:41.157Z,28.90
2019-03-11T01:19:12.365Z,24.37
2019-03-11T01:21:43.551Z,28.67
2019-03-11T01:24:14.662Z,28.17
2019-03-11T01:26:45.806Z,27.85
2019-03-11T01:29:16.973Z,29.95
2019-03-11T01:31:48.170Z,28.32
2019-03-11T01:34:19.256Z,23.05
2019-03-11T01:36:50.534Z,28.05
2019-03-11T01:39:22.734Z,26.77
2019-03-11T01:41:53.789Z,31.05
2019-03-11T01:44:24.775Z,28.50
2019-03-11T01:46:55.951Z,28.00
2019-03-11T01:49:27.171Z,30.37
2019-03-11T01:51:58.354Z,29.85
2019-03-11T01:54:29.499Z,31.00
2019-03-11T01:57:00.679Z,28.45
2019-03-11T01:59:31.777Z,26.52
2019-03-11T02:02:03.109Z,33.90
2019-03-11T02:04:34.302Z,26.48
2019-03-11T02:07:05.351Z,21.80
2019-03-11T02:09:36.472Z,22.27
2019-03-11T02:12:07.485Z,20.82
2019-03-11T02:14:38.580Z,14.87
2019-03-11T02:17:10.754Z,13.83
2019-03-11T02:19:41.714Z,17.85
2019-03-11T02:22:12.832Z,14.85
2019-03-11T02:24:43.904Z,12.93
2019-03-11T02:27:14.913Z,12.23
2019-03-11T02:29:45.972Z,11.33
2019-03-11T02:32:17.079Z,13.53
2019-03-11T02:34:48.083Z,10.95
2019-03-11T02:37:20.249Z,13.88
2019-03-11T02:39:51.522Z,9.90
2019-03-11T02:42:22.500Z,9.95
2019-03-11T02:44:53.576Z,11.93
2019-03-11T02:47:24.751Z,12.85
2019-03-11T02:49:55.886Z,10.08
2019-03-11T02:52:27.001Z,12.07
2019-03-11T02:54:59.073Z,12.65
2019-03-11T02:57:30.147Z,14.95
2019-03-11T03:00:01.211Z,10.63
2019-03-11T03:02:41.125Z,11.35
2019-03-11T03:05:13.842Z,12.28
2019-03-11T03:07:45.097Z,12.40
2019-03-11T03:10:16.377Z,15.90
2019-03-11T03:12:47.488Z,9.85
2019-03-11T03:15:18.523Z,10.98
2019-03-11T03:17:49.586Z,8.30
2019-03-11T03:20:20.716Z,13.83
2019-03-11T03:22:51.775Z,11.95
2019-03-11T03:25:34.089Z,10.25
2019-03-11T03:27:55.735Z,11.03
2019-03-11T03:30:26.765Z,14.30
2019-03-11T03:32:57.854Z,15.50
2019-03-11T03:35:28.799Z,11.38
2019-03-11T03:37:59.931Z,18.00
2019-03-11T03:40:30.995Z,17.62
2019-03-11T03:43:02.361Z,12.47
2019-03-11T03:45:35.804Z,12.18
2019-03-11T03:48:07.036Z,11.35
2019-03-11T03:50:39.477Z,9.85
2019-03-11T03:53:10.535Z,13.50
2019-03-11T03:55:44.941Z,14.90
2019-03-11T03:58:16.004Z,8.68
2019-03-11T04:00:47.992Z,11.93
2019-03-11T04:03:19.256Z,8.48
2019-03-11T04:05:50.279Z,10.65
2019-03-11T04:08:24.319Z,18.12
2019-03-11T04:10:55.462Z,14.00
2019-03-11T04:13:26.550Z,14.33
2019-03-11T04:15:57.762Z,8.78
2019-03-11T04:18:32.127Z,14.40
2019-03-11T04:21:03.422Z,13.78
2019-03-11T04:23:34.904Z,10.85
2019-03-11T04:26:06.012Z,14.58
2019-03-11T04:28:37.345Z,10.85
2019-03-11T04:31:08.415Z,15.25
2019-03-11T04:33:39.658Z,15.98
2019-03-11T04:36:10.750Z,10.55
2019-03-11T04:38:42.019Z,15.80
2019-03-11T04:41:13.261Z,11.78
2019-03-11T04:43:44.557Z,13.80
2019-03-11T04:46:17.287Z,13.68
2019-03-11T04:48:49.324Z,22.77
2019-03-11T04:51:20.476Z,13.05
2019-03-11T04:53:51.598Z,20.65
2019-03-11T04:56:22.737Z,11.15
2019-03-11T04:58:53.765Z,19.82
2019-03-11T05:01:24.719Z,12.73
2019-03-11T05:03:55.803Z,13.08
2019-03-11T05:06:27.155Z,13.75
2019-03-11T05:08:58.262Z,13.90
2019-03-11T05:11:29.400Z,16.82
2019-03-11T05:14:00.526Z,15.13
2019-03-11T05:16:31.600Z,17.37
2019-03-11T05:19:02.779Z,12.13
2019-03-11T05:21:33.928Z,11.25
2019-03-11T05:24:05.177Z,13.08
2019-03-11T05:26:36.296Z,17.82
2019-03-11T05:29:07.416Z,11.78
2019-03-11T05:31:38.763Z,11.70
2019-03-11T05:34:11.939Z,13.38
2019-03-11T05:36:42.658Z,11.83
2019-03-11T05:39:13.783Z,10.98
2019-03-11T05:41:45.087Z,13.25
2019-03-11T05:44:17.744Z,20.27
2019-03-11T05:46:50.423Z,16.25
2019-03-11T05:49:22.675Z,11.35
2019-03-11T05:51:53.851Z,11.83
2019-03-11T05:54:25.070Z,12.53
2019-03-11T05:56:58.957Z,12.07
2019-03-11T05:59:29.152Z,11.10
2019-03-11T06:02:00.234Z,13.28
2019-03-11T06:04:31.451Z,15.38
2019-03-11T06:07:02.519Z,14.45
2019-03-11T06:09:33.738Z,13.88
2019-03-11T06:12:04.738Z,13.93
2019-03-11T06:14:35.865Z,10.98
2019-03-11T06:17:06.834Z,14.10
2019-03-11T06:19:38.003Z,17.37
2019-03-11T06:22:13.741Z,17.62
2019-03-11T06:24:44.931Z,15.78
2019-03-11T06:27:16.016Z,14.43
2019-03-11T06:29:47.157Z,14.47
2019-03-11T06:32:18.237Z,17.27
2019-03-11T06:34:49.513Z,10.50
2019-03-11T06:37:20.749Z,13.08
2019-03-11T06:39:52.004Z,12.63
2019-03-11T06:42:23.164Z,12.65
2019-03-11T06:44:54.372Z,12.00
2019-03-11T06:47:26.881Z,11.45
2019-03-11T06:49:58.080Z,11.48
2019-03-11T06:52:29.409Z,11.40
2019-03-11T06:55:00.449Z,9.83
2019-03-11T06:57:31.536Z,12.13
2019-03-11T07:00:02.835Z,10.85
2019-03-11T07:02:33.983Z,14.53
2019-03-11T07:05:05.158Z,8.13
2019-03-11T07:07:36.313Z,10.93
2019-03-11T07:10:10.413Z,11.88
2019-03-11T07:12:41.427Z,9.60
2019-03-11T07:15:14.927Z,7.53
2019-03-11T07:20:18.949Z,8.50
2019-03-11T07:22:50.055Z,11.30
2019-03-11T07:25:21.147Z,6.62
2019-03-11T07:27:52.162Z,10.30
2019-03-11T07:30:23.248Z,11.68
2019-03-11T07:32:54.191Z,13.98
2019-03-11T07:35:25.155Z,13.40
2019-03-11T07:37:58.363Z,8.15
2019-03-11T07:40:30.551Z,14.03
2019-03-11T07:43:04.162Z,8.20
2019-03-11T07:45:35.182Z,16.90
2019-03-11T07:48:06.279Z,9.73
2019-03-11T07:50:37.328Z,15.05
2019-03-11T07:53:08.530Z,18.20
2019-03-11T07:55:39.575Z,9.03
2019-03-11T07:58:10.629Z,9.13
2019-03-11T08:00:53.023Z,13.70
2019-03-11T08:03:17.198Z,15.35
2019-03-11T08:05:48.368Z,13.30
2019-03-11T08:08:19.465Z,14.63
2019-03-11T08:10:50.533Z,10.90
2019-03-11T08:13:23.279Z,14.23
2019-03-11T08:15:54.434Z,13.32
2019-03-11T08:18:34.424Z,12.15
2019-03-11T08:20:58.459Z,13.83
2019-03-11T08:23:29.686Z,13.68
2019-03-11T08:26:00.782Z,19.15
2019-03-11T08:28:31.892Z,11.78
2019-03-11T08:31:02.932Z,14.18
2019-03-11T08:33:34.128Z,13.43
2019-03-11T08:36:07.280Z,15.48
2019-03-11T08:38:39.354Z,20.82
2019-03-11T08:41:10.379Z,12.35
2019-03-11T08:43:41.768Z,14.07
2019-03-11T08:46:13.911Z,18.27
2019-03-11T08:48:44.976Z,13.13
2019-03-11T08:51:15.994Z,11.18
2019-03-11T08:53:47.171Z,16.00
2019-03-11T08:56:18.153Z,10.45
2019-03-11T08:58:49.186Z,13.32
2019-03-11T09:01:20.306Z,14.15
2019-03-11T09:03:51.474Z,13.05
2019-03-11T09:06:22.535Z,15.88
2019-03-11T09:08:53.613Z,16.15
2019-03-11T09:11:24.745Z,19.30
2019-03-11T09:13:55.735Z,18.15
2019-03-11T09:16:26.666Z,20.77
2019-03-11T09:18:58.094Z,19.90
2019-03-11T09:21:29.021Z,17.65
2019-03-11T09:24:00.213Z,27.00
2019-03-11T09:26:31.340Z,20.02
2019-03-11T09:29:02.382Z,22.58
2019-03-11T09:31:33.884Z,16.97
2019-03-11T09:34:04.974Z,18.37
2019-03-11T09:36:36.170Z,23.77
2019-03-11T09:39:08.950Z,25.50
2019-03-11T09:41:43.251Z,19.90
2019-03-11T09:44:14.455Z,20.43
2019-03-11T09:46:45.443Z,23.05
2019-03-11T09:49:16.533Z,23.60
2019-03-11T09:51:48.292Z,22.75
2019-03-11T09:54:19.664Z,24.40
2019-03-11T09:56:51.115Z,25.55
2019-03-11T09:59:22.353Z,43.83
2019-03-11T10:01:53.558Z,46.35
2019-03-11T10:04:24.687Z,29.50
2019-03-11T10:06:55.973Z,18.10
2019-03-11T10:09:27.156Z,15.03
2019-03-11T10:11:58.429Z,16.80
2019-03-11T10:14:29.502Z,18.45
2019-03-11T10:17:01.699Z,36.65
2019-03-11T10:19:32.926Z,30.60
2019-03-11T10:22:04.288Z,19.17
2019-03-11T10:24:35.733Z,14.50
2019-03-11T10:27:06.784Z,20.45
2019-03-11T10:29:37.880Z,18.40
2019-03-11T10:32:09.053Z,17.67
2019-03-11T10:34:40.138Z,15.35
2019-03-11T10:37:11.416Z,15.43
2019-03-11T10:39:42.521Z,18.23
2019-03-11T10:42:13.578Z,14.75
2019-03-11T10:44:44.779Z,14.00
2019-03-11T10:47:15.948Z,15.32
2019-03-11T10:49:46.997Z,19.50
2019-03-11T10:52:17.940Z,23.18
2019-03-11T10:54:48.866Z,14.93
2019-03-11T10:57:19.906Z,19.25
2019-03-11T10:59:51.044Z,14.73
2019-03-11T11:02:22.134Z,17.25
2019-03-11T11:04:53.191Z,21.40
2019-03-11T11:07:24.266Z,20.75
2019-03-11T11:09:55.423Z,22.62
2019-03-11T11:12:26.721Z,22.45
2019-03-11T11:14:57.822Z,22.70
2019-03-11T11:17:28.962Z,23.67
2019-03-11T11:20:03.655Z,20.57
2019-03-11T11:22:34.294Z,23.40
2019-03-11T11:25:09.171Z,21.87
2019-03-11T11:27:40.484Z,26.17
2019-03-11T11:30:19.460Z,24.63
2019-03-11T11:32:50.689Z,22.87
2019-03-11T11:35:21.839Z,21.15
2019-03-11T11:37:53.131Z,22.40
2019-03-11T11:40:26.264Z,20.30
2019-03-11T11:42:57.215Z,21.55
2019-03-11T11:45:32.186Z,15.03
2019-03-11T11:48:03.325Z,18.75
2019-03-11T11:50:34.473Z,15.53
2019-03-11T11:53:05.650Z,15.23
2019-03-11T11:55:36.927Z,16.07
2019-03-11T11:58:08.152Z,16.97
2019-03-11T12:00:40.959Z,12.58
2019-03-11T12:03:12.320Z,18.37
2019-03-11T12:05:43.332Z,13.38
2019-03-11T12:08:14.564Z,20.45
2019-03-11T12:10:45.596Z,13.78
2019-03-11T12:13:16.898Z,13.10
2019-03-11T12:15:48.078Z,13.78
2019-03-11T12:18:19.254Z,15.38
2019-03-11T12:20:50.284Z,14.25
2019-03-11T12:23:21.473Z,17.25
2019-03-11T12:25:52.650Z,12.23
2019-03-11T12:28:23.853Z,12.30
2019-03-11T12:30:54.932Z,12.88
2019-03-11T12:33:26.114Z,7.45
2019-03-11T12:35:57.348Z,7.25
2019-03-11T12:38:28.932Z,8.23
2019-03-11T12:41:00.204Z,6.95
2019-03-11T12:43:31.376Z,7.17
2019-03-11T12:46:02.549Z,7.97
2019-03-11T12:48:34.628Z,7.25
2019-03-11T12:51:05.643Z,8.18
2019-03-11T12:53:37.051Z,9.35
2019-03-11T12:56:08.263Z,10.35
2019-03-11T12:58:42.062Z,8.48
2019-03-11T13:01:13.156Z,8.75
2019-03-11T13:03:44.226Z,11.18
2019-03-11T13:06:15.209Z,9.03
2019-03-11T13:08:46.264Z,9.10
2019-03-11T13:11:17.325Z,11.90
2019-03-11T13:13:48.389Z,12.80
2019-03-11T13:16:19.435Z,9.18
2019-03-11T13:18:50.619Z,8.60
2019-03-11T13:21:24.527Z,9.60
2019-03-11T13:23:56.698Z,9.00
2019-03-11T13:26:28.766Z,7.67
2019-03-11T13:29:00.053Z,8.85
2019-03-11T13:31:31.099Z,10.53
2019-03-11T13:34:02.156Z,6.97
2019-03-11T13:36:33.224Z,5.10
2019-03-11T13:39:04.878Z,6.10
2019-03-11T13:41:36.297Z,6.78
2019-03-11T13:44:08.092Z,8.80
2019-03-11T13:46:39.235Z,5.10
2019-03-11T13:49:10.226Z,6.97
2019-03-11T13:51:41.278Z,5.22
2019-03-11T13:54:12.398Z,8.35
2019-03-11T13:56:43.514Z,5.80
2019-03-11T13:59:14.580Z,7.83
2019-03-11T14:01:45.543Z,6.45
2019-03-11T14:04:16.631Z,5.47
2019-03-11T14:06:47.842Z,5.75
2019-03-11T14:09:18.866Z,5.67
2019-03-11T14:11:49.924Z,5.87
2019-03-11T14:14:21.133Z,4.12
2019-03-11T14:16:52.184Z,6.08
2019-03-11T14:19:23.892Z,7.70
2019-03-11T14:21:55.442Z,6.35
2019-03-11T14:24:28.289Z,7.08
2019-03-11T14:27:00.284Z,7.33
2019-03-11T14:29:33.162Z,4.42
2019-03-11T14:32:05.190Z,5.60
2019-03-11T14:34:36.793Z,13.85
2019-03-11T14:37:11.195Z,8.70
2019-03-11T14:39:42.333Z,6.37
2019-03-11T14:42:13.313Z,5.72
2019-03-11T14:44:44.453Z,7.95
2019-03-11T14:47:15.741Z,8.73
2019-03-11T14:49:46.764Z,10.18
2019-03-11T14:52:17.734Z,7.70
2019-03-11T14:54:48.745Z,8.98
2019-03-11T14:57:19.952Z,12.33
2019-03-11T14:59:50.993Z,4.33
2019-03-11T15:02:21.983Z,8.50
2019-03-11T15:04:53.205Z,7.85
2019-03-11T15:07:24.143Z,5.20
2019-03-11T15:09:55.189Z,3.05
2019-03-11T15:12:26.166Z,5.85
2019-03-11T15:14:57.182Z,9.55
2019-03-11T15:17:29.229Z,4.17
2019-03-11T15:20:00.414Z,21.40
2019-03-11T15:22:31.412Z,8.08
2019-03-11T15:25:02.403Z,8.45
2019-03-11T15:27:33.555Z,7.28
2019-03-11T15:30:10.092Z,6.62
2019-03-11T15:32:41.108Z,6.40
2019-03-11T15:35:12.151Z,8.28
2019-03-11T15:37:43.144Z,6.75
2019-03-11T15:40:16.102Z,7.22
2019-03-11T15:42:47.166Z,5.97
2019-03-11T15:45:19.267Z,6.75
2019-03-11T15:47:50.417Z,6.08
2019-03-11T15:50:30.515Z,7.17
2019-03-11T15:53:01.493Z,10.38
2019-03-11T15:55:32.737Z,5.10
2019-03-11T15:58:03.886Z,5.85
2019-03-11T16:00:34.985Z,4.28
2019-03-11T16:03:06.055Z,5.62
2019-03-11T16:05:38.654Z,4.85
2019-03-11T16:08:09.622Z,4.90
2019-03-11T16:10:40.924Z,6.12
2019-03-11T16:13:11.913Z,5.53
2019-03-11T16:15:42.897Z,5.22
2019-03-11T16:18:13.962Z,4.17
2019-03-11T16:20:45.001Z,4.37
2019-03-11T16:23:15.977Z,4.87
2019-03-11T16:25:47.168Z,5.72
2019-03-11T16:28:18.280Z,3.67
2019-03-11T16:30:49.516Z,6.03
2019-03-11T16:33:23.450Z,4.67
2019-03-11T16:35:54.577Z,3.77
2019-03-11T16:38:25.649Z,7.53
2019-03-11T16:40:56.706Z,5.60
2019-03-11T16:43:27.824Z,21.73
2019-03-11T16:45:58.902Z,5.87
2019-03-11T16:48:29.944Z,9.20
2019-03-11T16:51:00.962Z,10.88
2019-03-11T16:53:32.030Z,5.65
2019-03-11T16:56:03.117Z,10.45
2019-03-11T16:58:34.150Z,6.62
2019-03-11T17:01:06.897Z,6.87
2019-03-11T17:03:38.084Z,5.20
2019-03-11T17:06:10.446Z,12.85
2019-03-11T17:08:41.586Z,6.85
2019-03-11T17:11:12.706Z,6.72
2019-03-11T17:13:44.012Z,5.83
2019-03-11T17:16:15.221Z,8.95
2019-03-11T17:18:46.275Z,7.53
2019-03-11T17:21:18.441Z,8.38
2019-03-11T17:23:49.582Z,11.88
2019-03-11T17:26:20.562Z,8.73
2019-03-11T17:28:51.844Z,10.40
2019-03-11T17:31:22.960Z,9.03
2019-03-11T17:33:53.947Z,10.35
2019-03-11T17:36:26.641Z,10.08
2019-03-11T17:38:57.986Z,11.65
2019-03-11T17:41:29.047Z,13.62
2019-03-11T17:44:00.143Z,10.80
2019-03-11T17:46:31.386Z,16.37
2019-03-11T17:49:02.505Z,13.85
2019-03-11T17:51:33.667Z,10.25
2019-03-11T17:54:04.867Z,9.13
2019-03-11T17:56:36.039Z,8.88
2019-03-11T17:59:08.275Z,11.63
2019-03-11T18:01:39.359Z,8.25
2019-03-11T18:04:10.379Z,10.80
2019-03-11T18:06:41.403Z,7.62
2019-03-11T18:09:12.382Z,7.92
2019-03-11T18:11:43.415Z,13.68
2019-03-11T18:14:14.322Z,14.55
2019-03-11T18:16:45.508Z,19.55
2019-03-11T18:19:16.548Z,15.30
2019-03-11T18:21:47.616Z,16.30
2019-03-11T18:24:18.667Z,11.55
2019-03-11T18:26:50.552Z,15.65
2019-03-11T18:29:21.653Z,12.58
2019-03-11T18:32:01.549Z,18.20
2019-03-11T18:34:25.625Z,16.12
2019-03-11T18:36:57.691Z,17.10
2019-03-11T18:39:28.778Z,16.05
2019-03-11T18:41:59.907Z,20.55
2019-03-11T18:44:31.074Z,17.90
2019-03-11T18:47:02.120Z,19.67
2019-03-11T18:49:33.309Z,19.12
2019-03-11T18:52:04.340Z,19.90
2019-03-11T18:54:36.951Z,20.80
2019-03-11T18:57:08.131Z,16.65
2019-03-11T18:59:39.253Z,15.93
2019-03-11T19:02:10.457Z,15.98
2019-03-11T19:04:41.519Z,20.57
2019-03-11T19:07:12.610Z,23.85
2019-03-11T19:09:43.657Z,22.25
2019-03-11T19:12:14.830Z,26.48
2019-03-11T19:14:45.840Z,28.92
2019-03-11T19:17:16.918Z,24.02
2019-03-11T19:19:48.115Z,18.35
2019-03-11T19:22:19.170Z,9.60
2019-03-11T19:24:50.152Z,11.20
2019-03-11T19:27:21.230Z,10.18
2019-03-11T19:29:52.225Z,9.05
2019-03-11T19:32:23.191Z,9.08
2019-03-11T19:34:54.332Z,9.33
2019-03-11T19:37:25.351Z,7.17
2019-03-11T19:39:56.342Z,6.95
2019-03-11T19:42:27.545Z,7.78
2019-03-11T19:44:58.663Z,8.33
2019-03-11T19:47:29.743Z,8.55
2019-03-11T19:50:01.142Z,12.70
2019-03-11T19:52:34.114Z,13.48
2019-03-11T19:55:05.937Z,10.28
2019-03-11T19:57:36.969Z,14.43
2019-03-11T20:00:11.443Z,17.10
2019-03-11T20:02:42.562Z,25.88
2019-03-11T20:05:16.168Z,20.75
2019-03-11T20:07:47.686Z,15.20
2019-03-11T20:12:55.753Z,16.75
2019-03-11T20:15:26.963Z,18.50
2019-03-11T20:17:58.166Z,9.35
2019-03-11T20:20:29.420Z,10.20
2019-03-11T20:23:00.657Z,5.30
2019-03-11T20:25:36.335Z,4.40
2019-03-11T20:28:07.576Z,12.93
2019-03-11T20:30:38.679Z,7.15
2019-03-11T20:33:09.986Z,7.70
2019-03-11T20:35:41.126Z,9.38
2019-03-11T20:38:12.211Z,9.40
2019-03-11T20:40:43.242Z,10.18
2019-03-11T20:43:14.352Z,7.33
2019-03-11T20:45:45.626Z,7.60
2019-03-11T20:48:16.802Z,7.53
2019-03-11T20:50:47.941Z,8.08
2019-03-11T20:53:19.991Z,9.25
2019-03-11T20:55:51.064Z,7.08
2019-03-11T20:58:22.084Z,9.20
2019-03-11T21:00:53.064Z,7.72
2019-03-11T21:03:24.185Z,8.30
2019-03-11T21:06:01.232Z,8.33
2019-03-11T21:08:32.455Z,7.50
2019-03-11T21:11:03.601Z,9.58
2019-03-11T21:13:35.657Z,8.25
2019-03-11T21:16:06.795Z,7.10
2019-03-11T21:18:37.935Z,7.33
2019-03-11T21:21:08.880Z,8.88
2019-03-11T21:23:41.895Z,7.20
2019-03-11T21:26:12.766Z,7.47
2019-03-11T21:28:43.985Z,7.45
2019-03-11T21:31:18.355Z,6.80
2019-03-11T21:33:58.507Z,7.03
2019-03-11T21:36:22.273Z,7.83
2019-03-11T21:38:53.300Z,6.55
2019-03-11T21:41:24.390Z,6.40
2019-03-11T21:43:55.356Z,6.28
2019-03-11T21:46:26.616Z,8.70
2019-03-11T21:48:57.565Z,6.95
2019-03-11T21:51:28.599Z,5.78
2019-03-11T21:53:59.682Z,6.22
2019-03-11T21:56:30.737Z,7.03
2019-03-11T21:59:01.801Z,8.05
2019-03-11T22:01:32.729Z,9.35
2019-03-11T22:04:03.872Z,11.45
2019-03-11T22:06:34.861Z,11.00
2019-03-11T22:09:07.539Z,14.78
2019-03-11T22:11:39.088Z,13.00
2019-03-11T22:14:10.121Z,19.60
2019-03-11T22:16:41.179Z,12.28
2019-03-11T22:19:12.386Z,18.27
2019-03-11T22:21:44.988Z,15.93
2019-03-11T22:24:16.958Z,21.93
2019-03-11T22:26:48.119Z,23.38
2019-03-11T22:29:19.342Z,27.50
2019-03-11T22:31:50.565Z,24.07
2019-03-11T22:34:21.747Z,23.30
2019-03-11T22:36:56.170Z,18.45
2019-03-11T22:39:27.387Z,11.33
2019-03-11T22:41:58.316Z,15.18
2019-03-11T22:44:29.318Z,17.02
2019-03-11T22:47:00.307Z,18.60
2019-03-11T22:49:33.369Z,15.68
2019-03-11T22:52:04.634Z,14.05
2019-03-11T22:54:35.675Z,13.05
2019-03-11T22:57:06.682Z,9.53
2019-03-11T22:59:37.909Z,12.53
2019-03-11T23:02:11.526Z,7.20
2019-03-11T23:04:41.632Z,9.18
2019-03-11T23:07:12.639Z,11.18
2019-03-11T23:09:43.682Z,10.08
2019-03-11T23:12:14.657Z,10.00
2019-03-11T23:14:45.677Z,12.13
2019-03-11T23:17:16.783Z,12.58
2019-03-11T23:19:50.180Z,12.63
2019-03-11T23:22:21.176Z,13.90
2019-03-11T23:24:52.138Z,12.18
2019-03-11T23:27:23.105Z,15.13
2019-03-11T23:29:54.227Z,13.48
2019-03-11T23:32:25.293Z,18.57
2019-03-11T23:34:57.199Z,20.00
2019-03-11T23:37:28.415Z,14.85
2019-03-11T23:39:59.432Z,18.50
2019-03-11T23:42:30.575Z,18.42
2019-03-11T23:45:01.563Z,19.12
2019-03-11T23:47:34.043Z,22.93
2019-03-11T23:50:07.407Z,20.27
2019-03-11T23:52:38.406Z,18.42
2019-03-11T23:55:10.598Z,22.17
2019-03-11T23:57:41.538Z,21.15
